createdAt,value
2023-04-27T00:01:14.429Z,4.70
2023-04-27T00:03:41.919Z,5.20
2023-04-27T00:06:09.565Z,4.93
2023-04-27T00:08:36.327Z,5.25
2023-04-27T00:11:03.067Z,5.72
2023-04-27T00:13:29.801Z,5.57
2023-04-27T00:15:56.628Z,5.00
2023-04-27T00:18:23.328Z,5.05
2023-04-27T00:20:50.098Z,5.07
2023-04-27T00:23:16.794Z,5.32
2023-04-27T00:25:43.444Z,4.63
2023-04-27T00:28:10.091Z,5.35
2023-04-27T00:30:36.753Z,4.10
2023-04-27T00:33:03.586Z,4.85
2023-04-27T00:35:30.420Z,4.10
2023-04-27T00:37:57.203Z,5.63
2023-04-27T00:40:23.885Z,4.82
2023-04-27T00:42:50.623Z,4.20
2023-04-27T00:45:17.314Z,5.43
2023-04-27T00:47:44.010Z,5.22
2023-04-27T00:50:11.972Z,4.28
2023-04-27T00:52:38.957Z,4.22
2023-04-27T00:55:06.084Z,4.35
2023-04-27T00:57:33.626Z,5.05
2023-04-27T01:00:01.036Z,4.57
2023-04-27T01:02:28.338Z,5.20
2023-04-27T01:04:55.220Z,4.88
2023-04-27T01:07:25.600Z,4.82
2023-04-27T01:09:52.633Z,4.22
2023-04-27T01:12:19.301Z,6.10
2023-04-27T01:14:46.180Z,4.68
2023-04-27T01:17:14.006Z,5.13
2023-04-27T01:19:40.680Z,4.43
2023-04-27T01:22:07.294Z,5.07
2023-04-27T01:24:33.967Z,5.13
2023-04-27T01:27:01.632Z,5.43
2023-04-27T01:29:28.407Z,5.15
2023-04-27T01:31:55.117Z,5.75
2023-04-27T01:34:21.717Z,4.90
2023-04-27T01:36:48.457Z,5.95
2023-04-27T01:39:15.348Z,4.80
2023-04-27T01:41:42.239Z,5.60
2023-04-27T01:44:08.863Z,5.03
2023-04-27T01:46:35.550Z,5.03
2023-04-27T01:49:02.395Z,5.57
2023-04-27T01:51:29.052Z,5.30
2023-04-27T01:53:55.671Z,5.25
2023-04-27T01:56:22.542Z,6.43
2023-04-27T01:58:49.267Z,5.18
2023-04-27T02:01:16.125Z,5.72
2023-04-27T02:03:43.080Z,4.97
2023-04-27T02:06:10.000Z,5.72
2023-04-27T02:08:36.778Z,5.03
2023-04-27T02:11:03.434Z,4.28
2023-04-27T02:13:30.127Z,6.43
2023-04-27T02:15:56.782Z,6.13
2023-04-27T02:18:24.311Z,5.38
2023-04-27T02:20:51.203Z,5.53
2023-04-27T02:23:17.847Z,5.85
2023-04-27T02:25:46.787Z,5.07
2023-04-27T02:28:14.884Z,5.15
2023-04-27T02:30:42.003Z,4.78
2023-04-27T02:33:08.771Z,6.22
2023-04-27T02:35:35.525Z,4.60
2023-04-27T02:38:02.217Z,6.07
2023-04-27T02:40:28.960Z,4.30
2023-04-27T02:42:55.632Z,4.70
2023-04-27T02:45:22.248Z,4.55
2023-04-27T02:47:50.782Z,5.55
2023-04-27T02:50:17.569Z,6.18
2023-04-27T02:52:44.172Z,5.32
2023-04-27T02:55:10.987Z,5.70
2023-04-27T02:57:37.576Z,5.53
2023-04-27T03:00:06.885Z,7.15
2023-04-27T03:02:33.675Z,6.18
2023-04-27T03:05:00.404Z,5.85
2023-04-27T03:07:27.058Z,6.38
2023-04-27T03:09:53.709Z,5.97
2023-04-27T03:12:20.484Z,6.18
2023-04-27T03:14:47.122Z,5.65
2023-04-27T03:17:13.835Z,5.18
2023-04-27T03:19:41.190Z,6.03
2023-04-27T03:22:07.887Z,5.63
2023-04-27T03:24:34.944Z,5.82
2023-04-27T03:27:03.181Z,5.70
2023-04-27T03:29:29.863Z,5.38
2023-04-27T03:31:57.356Z,5.32
2023-04-27T03:34:24.396Z,5.95
2023-04-27T03:36:51.134Z,5.68
2023-04-27T03:39:17.802Z,6.78
2023-04-27T03:41:44.573Z,5.25
2023-04-27T03:44:11.252Z,5.95
2023-04-27T03:46:37.933Z,5.35
2023-04-27T03:49:04.647Z,6.00
2023-04-27T03:51:33.351Z,5.60
2023-04-27T03:54:00.196Z,5.70
2023-04-27T03:56:26.793Z,5.90
2023-04-27T03:58:53.439Z,6.68
2023-04-27T04:01:21.821Z,8.32
2023-04-27T04:03:48.687Z,6.85
2023-04-27T04:06:15.660Z,5.25
2023-04-27T04:08:42.380Z,5.10
2023-04-27T04:11:09.249Z,6.13
2023-04-27T04:13:36.484Z,6.43
2023-04-27T04:16:05.283Z,6.07
2023-04-27T04:18:32.248Z,7.22
2023-04-27T04:20:58.956Z,6.53
2023-04-27T04:23:25.922Z,6.80
2023-04-27T04:25:52.695Z,6.70
2023-04-27T04:28:19.473Z,7.30
2023-04-27T04:30:46.309Z,7.05
2023-04-27T04:33:13.584Z,6.25
2023-04-27T04:35:41.502Z,6.43
2023-04-27T04:38:08.562Z,5.53
2023-04-27T04:40:36.018Z,6.90
2023-04-27T04:43:02.871Z,6.45
2023-04-27T04:45:29.621Z,6.20
2023-04-27T04:47:56.477Z,5.85
2023-04-27T04:50:23.534Z,6.43
2023-04-27T04:52:50.863Z,6.05
2023-04-27T04:55:17.621Z,6.40
2023-04-27T04:57:44.369Z,6.50
2023-04-27T05:00:13.057Z,6.32
2023-04-27T05:02:40.585Z,6.85
2023-04-27T05:05:08.298Z,6.35
2023-04-27T05:07:35.219Z,7.15
2023-04-27T05:10:01.879Z,6.45
2023-04-27T05:12:28.494Z,5.97
2023-04-27T05:14:55.428Z,5.72
2023-04-27T05:17:22.226Z,5.78
2023-04-27T05:19:48.861Z,6.13
2023-04-27T05:22:16.062Z,7.00
2023-04-27T05:24:43.089Z,5.57
2023-04-27T05:27:09.740Z,5.82
2023-04-27T05:29:36.368Z,6.22
2023-04-27T05:32:03.400Z,6.15
2023-04-27T05:34:30.119Z,6.78
2023-04-27T05:36:56.908Z,5.20
2023-04-27T05:39:23.556Z,6.00
2023-04-27T05:41:50.201Z,6.60
2023-04-27T05:44:16.853Z,6.90
2023-04-27T05:46:43.633Z,6.82
2023-04-27T05:49:10.555Z,7.60
2023-04-27T05:51:38.851Z,7.15
2023-04-27T05:54:05.718Z,7.25
2023-04-27T05:56:32.612Z,7.82
2023-04-27T05:59:01.229Z,7.65
2023-04-27T06:01:29.271Z,7.50
2023-04-27T06:03:56.063Z,8.18
2023-04-27T06:06:22.849Z,7.53
2023-04-27T06:08:49.489Z,8.05
2023-04-27T06:11:16.449Z,9.55
2023-04-27T06:13:43.130Z,8.20
2023-04-27T06:16:09.832Z,8.50
2023-04-27T06:18:36.686Z,9.30
2023-04-27T06:21:03.469Z,7.78
2023-04-27T06:23:30.253Z,9.82
2023-04-27T06:25:58.599Z,7.00
2023-04-27T06:28:25.236Z,8.23
2023-04-27T06:30:52.003Z,8.88
2023-04-27T06:33:18.737Z,8.45
2023-04-27T06:35:47.359Z,7.68
2023-04-27T06:38:16.790Z,7.72
2023-04-27T06:40:43.536Z,7.32
2023-04-27T06:43:10.312Z,7.38
2023-04-27T06:45:37.392Z,7.32
2023-04-27T06:48:04.406Z,7.45
2023-04-27T06:50:31.370Z,7.55
2023-04-27T06:52:58.178Z,7.80
2023-04-27T06:55:25.051Z,7.70
2023-04-27T06:57:52.193Z,8.02
2023-04-27T07:00:20.056Z,8.35
2023-04-27T07:02:47.125Z,9.43
2023-04-27T07:05:14.344Z,8.40
2023-04-27T07:07:41.166Z,8.55
2023-04-27T07:10:09.193Z,7.53
2023-04-27T07:12:36.321Z,8.07
2023-04-27T07:15:04.367Z,7.65
2023-04-27T07:17:31.334Z,5.90
2023-04-27T07:19:58.185Z,7.22
2023-04-27T07:22:24.871Z,6.82
2023-04-27T07:24:51.547Z,5.50
2023-04-27T07:27:18.271Z,6.28
2023-04-27T07:29:44.930Z,5.90
2023-04-27T07:32:12.100Z,6.15
2023-04-27T07:34:51.871Z,5.90
2023-04-27T07:37:20.108Z,6.07
2023-04-27T07:39:47.313Z,5.75
2023-04-27T07:42:13.959Z,6.60
2023-04-27T07:44:40.796Z,5.75
2023-04-27T07:47:07.722Z,5.70
2023-04-27T07:49:35.593Z,5.28
2023-04-27T07:52:02.431Z,6.28
2023-04-27T07:54:29.149Z,5.25
2023-04-27T07:56:55.897Z,5.57
2023-04-27T07:59:22.656Z,6.28
2023-04-27T08:01:49.450Z,7.05
2023-04-27T08:04:16.601Z,6.53
2023-04-27T08:06:43.702Z,6.15
2023-04-27T08:09:11.309Z,5.50
2023-04-27T08:11:38.338Z,6.03
2023-04-27T08:14:05.015Z,5.35
2023-04-27T08:16:32.097Z,6.75
2023-04-27T08:19:00.569Z,6.30
2023-04-27T08:21:28.643Z,6.28
2023-04-27T08:23:55.563Z,5.97
2023-04-27T08:26:24.365Z,6.07
2023-04-27T08:28:52.479Z,7.65
2023-04-27T08:31:19.104Z,5.63
2023-04-27T08:33:45.728Z,6.10
2023-04-27T08:36:12.411Z,5.68
2023-04-27T08:38:39.265Z,6.38
2023-04-27T08:41:20.222Z,5.45
2023-04-27T08:43:49.921Z,5.57
2023-04-27T08:46:24.334Z,6.93
2023-04-27T08:48:52.581Z,6.10
2023-04-27T08:51:20.078Z,6.13
2023-04-27T08:53:55.003Z,5.20
2023-04-27T08:56:25.025Z,6.18
2023-04-27T08:58:52.126Z,5.82
2023-04-27T09:01:19.088Z,5.97
2023-04-27T09:03:47.326Z,5.72
2023-04-27T09:06:14.556Z,6.43
2023-04-27T09:08:49.029Z,5.35
2023-04-27T09:11:16.831Z,6.50
2023-04-27T09:13:45.217Z,6.43
2023-04-27T09:16:15.198Z,6.20
2023-04-27T09:18:43.750Z,4.80
2023-04-27T09:21:10.661Z,5.45
2023-04-27T09:23:38.666Z,5.85
2023-04-27T09:26:08.189Z,5.45
2023-04-27T09:28:37.701Z,5.65
2023-04-27T09:31:05.047Z,4.22
2023-04-27T09:33:32.724Z,4.95
2023-04-27T09:36:02.174Z,4.78
2023-04-27T09:38:29.887Z,4.50
2023-04-27T09:40:56.911Z,4.82
2023-04-27T09:43:24.822Z,5.60
2023-04-27T09:45:51.464Z,4.70
2023-04-27T09:48:18.805Z,5.13
2023-04-27T09:50:46.336Z,5.63
2023-04-27T09:53:15.816Z,4.90
2023-04-27T09:55:48.521Z,4.45
2023-04-27T09:58:56.161Z,3.55
2023-04-27T10:01:37.509Z,3.15
2023-04-27T10:04:44.372Z,3.75
2023-04-27T10:07:12.873Z,5.13
2023-04-27T10:09:42.150Z,3.10
2023-04-27T10:12:20.877Z,3.05
2023-04-27T10:15:00.586Z,4.55
2023-04-27T10:17:32.516Z,3.97
2023-04-27T10:20:03.169Z,4.32
2023-04-27T10:22:39.830Z,4.18
2023-04-27T10:25:25.783Z,4.05
2023-04-27T10:27:54.525Z,5.60
2023-04-27T10:30:23.596Z,3.92
2023-04-27T10:32:58.846Z,4.55
2023-04-27T10:35:41.759Z,4.78
2023-04-27T10:38:11.441Z,4.20
2023-04-27T10:40:38.448Z,4.95
2023-04-27T10:43:24.690Z,4.78
2023-04-27T10:45:51.331Z,3.53
2023-04-27T10:48:18.043Z,4.43
2023-04-27T10:50:46.782Z,4.80
2023-04-27T10:53:14.962Z,3.70
2023-04-27T10:55:41.593Z,4.55
2023-04-27T10:58:08.289Z,3.58
2023-04-27T11:00:44.174Z,3.97
2023-04-27T11:03:14.689Z,4.03
2023-04-27T11:05:46.351Z,3.72
2023-04-27T11:08:14.961Z,4.40
2023-04-27T11:10:50.367Z,3.95
2023-04-27T11:13:20.267Z,4.40
2023-04-27T11:18:31.556Z,4.03
2023-04-27T11:21:15.270Z,3.90
2023-04-27T11:23:42.630Z,4.72
2023-04-27T11:26:19.994Z,3.30
2023-04-27T11:29:05.413Z,3.92
2023-04-27T11:31:49.151Z,2.72
2023-04-27T11:34:19.895Z,3.88
2023-04-27T11:37:07.139Z,3.60
2023-04-27T11:39:44.777Z,4.13
2023-04-27T11:42:23.135Z,3.00
2023-04-27T11:45:06.441Z,3.20
2023-04-27T11:47:33.792Z,3.58
2023-04-27T11:50:01.702Z,3.75
2023-04-27T11:52:29.709Z,3.95
2023-04-27T11:54:56.759Z,4.00
2023-04-27T11:57:26.332Z,3.45
2023-04-27T11:59:53.620Z,3.65
2023-04-27T12:02:22.035Z,4.03
2023-04-27T12:04:50.957Z,3.78
2023-04-27T12:07:17.981Z,3.85
2023-04-27T12:09:44.844Z,3.63
2023-04-27T12:12:13.015Z,4.05
2023-04-27T12:14:39.904Z,4.20
2023-04-27T12:17:07.195Z,3.53
2023-04-27T12:19:34.105Z,3.90
2023-04-27T12:22:00.853Z,2.83
2023-04-27T12:24:27.637Z,3.03
2023-04-27T12:26:54.377Z,3.53
2023-04-27T12:29:21.685Z,3.53
2023-04-27T12:31:48.538Z,3.70
2023-04-27T12:34:15.527Z,3.35
2023-04-27T12:36:42.641Z,3.00
2023-04-27T12:39:18.195Z,3.63
2023-04-27T12:41:45.198Z,3.45
2023-04-27T12:44:12.988Z,3.58
2023-04-27T12:46:40.704Z,3.50
2023-04-27T12:49:08.084Z,3.20
2023-04-27T12:51:35.022Z,3.22
2023-04-27T12:54:03.107Z,3.40
2023-04-27T12:56:29.972Z,3.20
2023-04-27T12:58:56.988Z,3.15
2023-04-27T13:01:25.055Z,2.90
2023-04-27T13:03:53.203Z,7.05
2023-04-27T13:06:22.646Z,4.05
2023-04-27T13:08:49.882Z,3.58
2023-04-27T13:11:17.198Z,3.88
2023-04-27T13:13:44.692Z,3.63
2023-04-27T13:16:12.333Z,3.55
2023-04-27T13:18:40.621Z,3.05
2023-04-27T13:21:07.930Z,3.08
2023-04-27T13:23:34.716Z,4.38
2023-04-27T13:26:02.242Z,2.60
2023-04-27T13:28:28.876Z,2.65
2023-04-27T13:30:55.525Z,3.17
2023-04-27T13:33:23.600Z,4.32
2023-04-27T13:35:51.298Z,3.60
2023-04-27T13:38:18.062Z,3.13
2023-04-27T13:40:44.734Z,3.97
2023-04-27T13:43:11.621Z,3.30
2023-04-27T13:45:39.662Z,3.22
2023-04-27T13:48:07.074Z,3.13
2023-04-27T13:50:33.890Z,2.78
2023-04-27T13:53:01.789Z,3.10
2023-04-27T13:55:28.460Z,2.58
2023-04-27T13:57:55.286Z,2.72
2023-04-27T14:00:22.464Z,2.90
2023-04-27T14:02:49.232Z,2.78
2023-04-27T14:05:16.033Z,3.20
2023-04-27T14:07:42.808Z,3.30
2023-04-27T14:10:09.850Z,2.75
2023-04-27T14:12:36.658Z,2.83
2023-04-27T14:15:03.515Z,3.05
2023-04-27T14:17:30.253Z,3.30
2023-04-27T14:19:56.892Z,2.63
2023-04-27T14:22:23.782Z,3.05
2023-04-27T14:24:50.594Z,2.83
2023-04-27T14:27:17.468Z,2.70
2023-04-27T14:29:44.127Z,5.40
2023-04-27T14:32:11.176Z,3.80
2023-04-27T14:34:38.033Z,3.03
2023-04-27T14:37:04.778Z,3.03
2023-04-27T14:39:31.639Z,2.83
2023-04-27T14:41:58.403Z,2.47
2023-04-27T14:44:25.172Z,3.40
2023-04-27T14:46:51.867Z,2.97
2023-04-27T14:49:18.673Z,2.67
2023-04-27T14:51:45.322Z,3.15
2023-04-27T14:54:13.185Z,2.33
2023-04-27T14:56:39.902Z,2.47
2023-04-27T14:59:06.636Z,2.88
2023-04-27T15:01:33.380Z,3.35
2023-04-27T15:04:01.515Z,3.40
2023-04-27T15:06:28.605Z,2.55
2023-04-27T15:08:55.982Z,2.80
2023-04-27T15:11:22.776Z,2.63
2023-04-27T15:13:49.934Z,2.95
2023-04-27T15:16:16.621Z,4.43
2023-04-27T15:18:43.433Z,3.53
2023-04-27T15:21:10.209Z,2.67
2023-04-27T15:23:37.353Z,3.10
2023-04-27T15:26:04.879Z,3.75
2023-04-27T15:28:33.638Z,2.67
2023-04-27T15:31:00.702Z,2.92
2023-04-27T15:33:27.672Z,3.00
2023-04-27T15:35:54.848Z,3.05
2023-04-27T15:38:21.555Z,3.33
2023-04-27T15:40:48.272Z,3.17
2023-04-27T15:43:15.064Z,2.95
2023-04-27T15:45:42.262Z,2.75
2023-04-27T15:48:09.123Z,2.35
2023-04-27T15:50:35.813Z,3.10
2023-04-27T15:53:02.549Z,3.22
2023-04-27T15:55:29.246Z,3.03
2023-04-27T15:57:56.062Z,2.38
2023-04-27T16:00:23.089Z,3.80
2023-04-27T16:02:50.190Z,2.50
2023-04-27T16:05:17.013Z,3.22
2023-04-27T16:07:43.960Z,3.45
2023-04-27T16:10:11.550Z,2.40
2023-04-27T16:12:38.737Z,2.67
2023-04-27T16:15:06.892Z,3.05
2023-04-27T16:17:36.653Z,2.47
2023-04-27T16:20:06.631Z,2.33
2023-04-27T16:22:34.373Z,2.75
2023-04-27T16:25:01.372Z,3.03
2023-04-27T16:27:28.112Z,2.72
2023-04-27T16:29:55.681Z,6.07
2023-04-27T16:32:22.542Z,4.82
2023-04-27T16:34:49.428Z,4.18
2023-04-27T16:37:16.184Z,3.15
2023-04-27T16:39:42.899Z,2.47
2023-04-27T16:42:10.069Z,2.53
2023-04-27T16:44:38.211Z,2.70
2023-04-27T16:47:05.014Z,3.25
2023-04-27T16:49:31.780Z,4.78
2023-04-27T16:51:58.459Z,4.72
2023-04-27T16:54:25.085Z,4.32
2023-04-27T16:56:53.258Z,5.65
2023-04-27T16:59:21.883Z,3.80
2023-04-27T17:01:48.534Z,3.45
2023-04-27T17:04:15.485Z,4.50
2023-04-27T17:06:42.464Z,5.40
2023-04-27T17:09:10.081Z,4.72
2023-04-27T17:11:37.286Z,7.35
2023-04-27T17:14:04.013Z,6.70
2023-04-27T17:16:30.804Z,4.47
2023-04-27T17:18:57.474Z,5.57
2023-04-27T17:21:25.103Z,6.93
2023-04-27T17:23:53.066Z,6.53
2023-04-27T17:26:21.500Z,7.35
2023-04-27T17:28:48.723Z,4.65
2023-04-27T17:31:17.450Z,5.80
2023-04-27T17:33:44.234Z,6.65
2023-04-27T17:36:11.663Z,6.10
2023-04-27T17:38:38.305Z,6.93
2023-04-27T17:41:05.055Z,4.25
2023-04-27T17:43:34.668Z,5.85
2023-04-27T17:46:01.806Z,4.88
2023-04-27T17:48:28.606Z,4.60
2023-04-27T17:50:55.677Z,3.53
2023-04-27T17:53:22.501Z,4.93
2023-04-27T17:55:49.237Z,6.45
2023-04-27T17:58:17.077Z,5.10
2023-04-27T18:00:44.009Z,5.03
2023-04-27T18:03:11.736Z,7.25
2023-04-27T18:05:38.528Z,4.97
2023-04-27T18:08:05.974Z,7.75
2023-04-27T18:10:32.708Z,6.70
2023-04-27T18:12:59.628Z,5.88
2023-04-27T18:15:26.333Z,7.22
2023-04-27T18:17:53.239Z,5.55
2023-04-27T18:20:22.943Z,6.10
2023-04-27T18:22:50.070Z,5.90
2023-04-27T18:25:16.745Z,5.53
2023-04-27T18:27:45.167Z,7.63
2023-04-27T18:30:11.974Z,8.43
2023-04-27T18:32:38.725Z,9.30
2023-04-27T18:35:06.376Z,13.18
2023-04-27T18:37:33.239Z,5.68
2023-04-27T18:40:00.092Z,6.68
2023-04-27T18:42:26.806Z,5.13
2023-04-27T18:45:00.494Z,4.38
2023-04-27T18:47:27.646Z,4.03
2023-04-27T18:49:54.407Z,4.32
2023-04-27T18:52:22.075Z,4.35
2023-04-27T18:54:48.838Z,5.10
2023-04-27T18:57:15.494Z,3.55
2023-04-27T18:59:42.342Z,4.30
2023-04-27T19:02:09.084Z,4.05
2023-04-27T19:04:35.881Z,4.13
2023-04-27T19:07:02.940Z,3.95
2023-04-27T19:09:29.655Z,4.00
2023-04-27T19:12:02.901Z,4.03
2023-04-27T19:14:31.284Z,4.35
2023-04-27T19:16:58.014Z,4.90
2023-04-27T19:19:25.761Z,4.35
2023-04-27T19:21:52.503Z,3.85
2023-04-27T19:24:19.209Z,4.70
2023-04-27T19:26:46.944Z,4.50
2023-04-27T19:29:13.976Z,6.10
2023-04-27T19:31:40.927Z,5.32
2023-04-27T19:34:07.665Z,4.18
2023-04-27T19:36:34.613Z,4.80
2023-04-27T19:39:01.411Z,5.00
2023-04-27T19:41:28.238Z,5.50
2023-04-27T19:43:55.360Z,5.63
2023-04-27T19:46:22.144Z,7.13
2023-04-27T19:48:48.912Z,6.85
2023-04-27T19:51:15.666Z,5.78
2023-04-27T19:53:42.397Z,6.05
2023-04-27T19:56:09.155Z,6.32
2023-04-27T19:58:37.046Z,5.85
2023-04-27T20:01:04.162Z,6.05
2023-04-27T20:03:31.088Z,6.93
2023-04-27T20:05:58.316Z,6.15
2023-04-27T20:08:25.202Z,6.05
2023-04-27T20:10:52.066Z,6.72
2023-04-27T20:13:18.884Z,5.95
2023-04-27T20:15:46.526Z,6.72
2023-04-27T20:18:13.323Z,5.45
2023-04-27T20:20:41.902Z,6.75
2023-04-27T20:23:08.715Z,6.35
2023-04-27T20:25:35.534Z,6.80
2023-04-27T20:28:02.253Z,6.25
2023-04-27T20:30:29.012Z,5.97
2023-04-27T20:32:56.432Z,7.47
2023-04-27T20:35:24.175Z,5.30
2023-04-27T20:37:52.043Z,5.82
2023-04-27T20:40:18.905Z,6.10
2023-04-27T20:42:46.002Z,5.45
2023-04-27T20:45:13.166Z,6.13
2023-04-27T20:47:40.121Z,5.00
2023-04-27T20:50:07.797Z,5.65
2023-04-27T20:52:34.980Z,5.75
2023-04-27T20:55:03.425Z,5.50
2023-04-27T20:57:30.134Z,7.20
2023-04-27T20:59:57.102Z,6.05
2023-04-27T21:02:23.805Z,5.53
2023-04-27T21:04:50.768Z,5.72
2023-04-27T21:07:17.604Z,6.45
2023-04-27T21:09:44.343Z,6.55
2023-04-27T21:12:10.930Z,5.57
2023-04-27T21:14:37.695Z,5.25
2023-04-27T21:17:04.537Z,5.50
2023-04-27T21:19:31.327Z,5.63
2023-04-27T21:21:58.082Z,7.28
2023-04-27T21:24:25.081Z,6.65
2023-04-27T21:26:52.058Z,6.43
2023-04-27T21:29:18.949Z,7.55
2023-04-27T21:31:45.794Z,6.75
2023-04-27T21:34:12.636Z,5.30
2023-04-27T21:36:39.295Z,5.45
2023-04-27T21:39:06.292Z,6.18
2023-04-27T21:41:34.623Z,6.97
2023-04-27T21:44:01.315Z,7.28
2023-04-27T21:46:28.025Z,6.07
2023-04-27T21:48:55.273Z,6.47
2023-04-27T21:51:21.941Z,5.03
2023-04-27T21:53:48.588Z,5.97
2023-04-27T21:56:15.419Z,5.78
2023-04-27T21:58:42.111Z,5.28
2023-04-27T22:01:08.862Z,5.97
2023-04-27T22:03:35.663Z,6.13
2023-04-27T22:06:02.509Z,5.57
2023-04-27T22:08:31.713Z,6.40
2023-04-27T22:10:58.603Z,5.07
2023-04-27T22:13:25.832Z,5.15
2023-04-27T22:15:52.649Z,6.78
2023-04-27T22:18:19.681Z,5.82
2023-04-27T22:20:47.238Z,5.55
2023-04-27T22:23:13.892Z,5.20
2023-04-27T22:25:42.716Z,5.32
2023-04-27T22:28:10.536Z,6.55
2023-04-27T22:30:37.713Z,5.57
2023-04-27T22:33:04.541Z,5.35
2023-04-27T22:35:31.212Z,5.95
2023-04-27T22:37:59.178Z,6.13
2023-04-27T22:40:26.160Z,5.40
2023-04-27T22:42:53.670Z,5.45
2023-04-27T22:45:20.860Z,5.45
2023-04-27T22:47:49.315Z,5.75
2023-04-27T22:50:16.544Z,5.18
2023-04-27T22:52:43.416Z,7.78
2023-04-27T22:55:10.965Z,5.50
2023-04-27T22:57:38.270Z,5.60
2023-04-27T23:00:05.578Z,5.00
2023-04-27T23:02:32.477Z,5.22
2023-04-27T23:04:59.360Z,5.75
2023-04-27T23:07:26.042Z,5.47
2023-04-27T23:09:52.872Z,5.32
2023-04-27T23:12:20.725Z,5.18
2023-04-27T23:14:47.444Z,4.30
2023-04-27T23:17:15.560Z,5.53
2023-04-27T23:19:42.233Z,4.75
2023-04-27T23:22:08.960Z,4.88
2023-04-27T23:24:35.697Z,4.70
2023-04-27T23:27:02.400Z,4.60
2023-04-27T23:29:30.296Z,4.15
2023-04-27T23:32:03.609Z,3.42
2023-04-27T23:34:32.399Z,4.65
2023-04-27T23:36:59.187Z,4.47
2023-04-27T23:39:26.016Z,3.80
2023-04-27T23:41:52.801Z,4.32
2023-04-27T23:44:22.170Z,3.97
2023-04-27T23:46:48.898Z,4.10
2023-04-27T23:49:15.682Z,4.25
2023-04-27T23:51:42.313Z,3.80
2023-04-27T23:54:08.954Z,4.47
2023-04-27T23:56:36.674Z,4.13
2023-04-27T23:59:03.538Z,4.20
